Time;durP1;ratioP1;P1;durP2;ratioP2;P2;SDS_P1;SDS_P2;PMS_P1;PMS_P2;Temp;Humidity;BMP_temperature;BMP_pressure;BME280_temperature;BME280_humidity;BME280_pressure;Samples;Min_cycle;Max_cycle;Signal;HPM_P1;HPM_P2
2022/08/30 00:01:32;;;;;;;3.58;0.30;;;;;;;-142.37;100.00;59669.53;4958428;28;20026;-65
2022/08/30 00:03:59;;;;;;;3.00;0.32;;;;;;;-142.37;100.00;59669.53;4958281;28;20039;-65
2022/08/30 00:06:27;;;;;;;0.80;0.32;;;;;;;-142.37;100.00;59669.53;4975629;28;20034;-64
2022/08/30 00:08:54;;;;;;;1.15;0.20;;;;;;;-142.37;100.00;59669.53;4975477;28;20494;-65
2022/08/30 00:11:24;;;;;;;1.10;0.38;;;;;;;-142.37;100.00;59669.53;4975194;28;20085;-65
2022/08/30 00:13:52;;;;;;;1.30;0.25;;;;;;;-142.37;100.00;59669.53;4975525;28;20483;-65
2022/08/30 00:16:19;;;;;;;1.05;0.30;;;;;;;-142.37;100.00;59669.53;4975632;28;20061;-67
2022/08/30 00:18:46;;;;;;;1.88;0.47;;;;;;;-142.37;100.00;59669.53;4957897;28;20066;-66
2022/08/30 00:21:12;;;;;;;0.43;0.20;;;;;;;-142.37;100.00;59669.53;4975445;28;20070;-66
2022/08/30 00:23:38;;;;;;;0.68;0.10;;;;;;;-142.37;100.00;59669.53;4975535;28;20510;-65
2022/08/30 00:26:05;;;;;;;1.98;0.30;;;;;;;-142.37;100.00;59669.53;4957688;28;20476;-65
2022/08/30 00:28:32;;;;;;;0.93;0.38;;;;;;;-142.37;100.00;59669.53;4957788;28;20093;-66
2022/08/30 00:31:00;;;;;;;0.52;0.20;;;;;;;-142.37;100.00;59669.53;4975053;28;20118;-66
2022/08/30 00:33:26;;;;;;;1.85;0.50;;;;;;;-142.37;100.00;59669.53;4975146;28;20077;-66
2022/08/30 00:35:52;;;;;;;4.80;0.40;;;;;;;-142.37;100.00;59669.53;4973717;28;20034;-67
2022/08/30 00:38:18;;;;;;;1.60;0.35;;;;;;;-142.37;100.00;59669.53;4974786;28;20447;-66
2022/08/30 00:40:45;;;;;;;0.60;0.10;;;;;;;-142.37;100.00;59669.53;4957684;28;20038;-66
2022/08/30 00:43:19;;;;;;;0.40;0.20;;;;;;;-142.37;100.00;59669.53;4974923;28;20050;-66
2022/08/30 00:45:45;;;;;;;3.73;1.10;;;;;;;-142.37;100.00;59669.53;4957602;28;20026;-66
2022/08/30 00:48:11;;;;;;;0.57;0.20;;;;;;;-142.37;100.00;59669.53;4957700;28;20065;-66
2022/08/30 00:50:44;;;;;;;4.22;0.30;;;;;;;-142.37;100.00;59669.53;4975013;28;20067;-66
2022/08/30 00:53:15;;;;;;;2.70;0.20;;;;;;;-142.37;100.00;59669.53;4974468;28;20035;-66
2022/08/30 00:55:42;;;;;;;3.15;0.60;;;;;;;-142.37;100.00;59669.53;4957400;28;20035;-66
2022/08/30 00:58:13;;;;;;;0.65;0.20;;;;;;;-142.37;100.00;59669.53;4974750;28;20038;-66
2022/08/30 01:00:39;;;;;;;0.70;0.30;;;;;;;-142.37;100.00;59669.53;4974707;28;20039;-65
2022/08/30 01:03:08;;;;;;;0.25;0.20;;;;;;;-142.37;100.00;59669.53;4974679;28;20042;-67
2022/08/30 01:05:37;;;;;;;0.82;0.22;;;;;;;-142.37;100.00;59669.53;4957134;28;20058;-66
2022/08/30 01:08:04;;;;;;;1.90;0.40;;;;;;;-142.37;100.00;59669.53;4957052;28;20118;-66
2022/08/30 01:10:32;;;;;;;1.65;0.30;;;;;;;-142.37;100.00;59669.53;4972518;28;20034;-66
2022/08/30 01:12:58;;;;;;;1.95;0.32;;;;;;;-142.37;100.00;59669.53;4956791;28;20027;-67
2022/08/30 01:15:24;;;;;;;1.95;0.40;;;;;;;-142.37;100.00;59669.53;4974242;28;20033;-67
2022/08/30 01:17:50;;;;;;;1.98;0.35;;;;;;;-142.37;100.00;59669.53;4974005;28;20153;-66
2022/08/30 01:20:23;;;;;;;0.93;0.40;;;;;;;-142.37;100.00;59669.53;4956972;28;20247;-66
2022/08/30 01:22:49;;;;;;;1.42;0.30;;;;;;;-142.37;100.00;59669.53;4956902;28;20399;-66
2022/08/30 01:25:19;;;;;;;2.55;0.30;;;;;;;-142.37;100.00;59669.53;4972587;28;20035;-66
2022/08/30 01:27:52;;;;;;;0.30;0.20;;;;;;;-142.37;100.00;59669.53;4973752;28;20051;-64
2022/08/30 01:30:18;;;;;;;0.82;0.22;;;;;;;-142.37;100.00;59669.53;4956532;28;20031;-65
2022/08/30 01:32:46;;;;;;;0.93;0.30;;;;;;;-142.37;100.00;59669.53;4973848;28;20035;-67
2022/08/30 01:35:16;;;;;;;0.57;0.30;;;;;;;-142.37;100.00;59669.53;4973816;28;20551;-65
2022/08/30 01:37:43;;;;;;;0.45;0.30;;;;;;;-142.37;100.00;59669.53;4973787;28;20546;-66
2022/08/30 01:40:11;;;;;;;2.47;0.40;;;;;;;-142.37;100.00;59669.53;4973823;28;20495;-67
2022/08/30 01:42:37;;;;;;;2.58;0.32;;;;;;;-142.37;100.00;59669.53;4973908;28;20030;-66
2022/08/30 01:45:04;;;;;;;3.17;0.80;;;;;;;-142.37;100.00;59669.53;4973618;28;20093;-66
2022/08/30 01:47:29;;;;;;;2.15;0.30;;;;;;;-142.37;100.00;59669.53;4956626;28;20087;-66
2022/08/30 01:49:55;;;;;;;1.17;0.40;;;;;;;-142.37;100.00;59669.53;4973913;28;20038;-66
2022/08/30 01:52:21;;;;;;;2.13;0.82;;;;;;;-142.37;100.00;59669.53;4956506;28;20041;-67
2022/08/30 01:54:46;;;;;;;5.13;0.73;;;;;;;-142.37;100.00;59669.53;4956393;28;20047;-67
2022/08/30 01:57:16;;;;;;;0.60;0.30;;;;;;;-142.37;100.00;59669.53;4973344;28;20125;-65
2022/08/30 01:59:46;;;;;;;1.67;0.30;;;;;;;-142.37;100.00;59669.53;4956286;28;20460;-67
2022/08/30 02:02:14;;;;;;;1.38;0.40;;;;;;;-142.37;100.00;59669.53;4956406;28;20035;-66
2022/08/30 02:04:41;;;;;;;0.98;0.30;;;;;;;-142.37;100.00;59669.53;4956236;28;20035;-67
2022/08/30 02:07:07;;;;;;;2.55;0.93;;;;;;;-142.37;100.00;59669.53;4973248;28;20073;-66
2022/08/30 02:09:33;;;;;;;0.85;0.30;;;;;;;-142.37;100.00;59669.53;4973297;28;20086;-67
2022/08/30 02:11:59;;;;;;;1.40;0.70;;;;;;;-142.37;100.00;59669.53;4973641;28;20043;-66
2022/08/30 02:14:24;;;;;;;2.47;0.30;;;;;;;-142.37;100.00;59669.53;4956037;28;20034;-68
2022/08/30 02:16:50;;;;;;;1.23;0.30;;;;;;;-142.37;100.00;59669.53;4973623;28;20109;-67
2022/08/30 02:19:16;;;;;;;1.42;0.35;;;;;;;-142.37;100.00;59669.53;4973077;28;20448;-67
2022/08/30 02:21:42;;;;;;;1.75;0.30;;;;;;;-142.37;100.00;59669.53;4955271;28;20038;-66
2022/08/30 02:24:08;;;;;;;3.45;0.52;;;;;;;-142.37;100.00;59669.53;4973204;28;20041;-66
2022/08/30 02:26:35;;;;;;;4.38;0.40;;;;;;;-142.37;100.00;59669.53;4972918;28;20458;-67
2022/08/30 02:29:01;;;;;;;0.77;0.28;;;;;;;-142.37;100.00;59669.53;4973106;28;20077;-67
2022/08/30 02:31:27;;;;;;;1.25;0.50;;;;;;;-142.37;100.00;59669.53;4973597;28;20492;-65
2022/08/30 02:33:53;;;;;;;0.60;0.30;;;;;;;-142.37;100.00;59669.53;4973166;28;20026;-65
2022/08/30 02:36:20;;;;;;;1.55;0.50;;;;;;;-142.37;100.00;59669.53;4973178;28;20023;-66
2022/08/30 02:38:46;;;;;;;0.95;0.28;;;;;;;-142.37;100.00;59669.53;4972980;28;20110;-66
2022/08/30 02:41:12;;;;;;;2.13;0.32;;;;;;;-142.37;100.00;59669.53;4955310;28;20037;-66
2022/08/30 02:43:38;;;;;;;1.02;0.40;;;;;;;-142.37;100.00;59669.53;4955681;28;20046;-66
2022/08/30 02:46:04;;;;;;;0.70;0.32;;;;;;;-142.37;100.00;59669.53;4973067;28;20031;-67
2022/08/30 02:48:30;;;;;;;1.48;0.50;;;;;;;-142.37;100.00;59669.53;4973125;28;20070;-66
2022/08/30 02:50:56;;;;;;;1.20;0.60;;;;;;;-142.37;100.00;59669.53;4972911;28;20066;-69
2022/08/30 02:53:22;;;;;;;2.17;0.40;;;;;;;-142.37;100.00;59669.53;4972974;28;20030;-66
2022/08/30 02:55:48;;;;;;;0.65;0.32;;;;;;;-142.37;100.00;59669.53;4955355;28;20027;-66
2022/08/30 02:58:13;;;;;;;1.30;0.40;;;;;;;-142.37;100.00;59669.53;4955533;28;20054;-67
2022/08/30 03:00:40;;;;;;;0.40;0.20;;;;;;;-142.37;100.00;59669.53;4955612;28;20468;-66
2022/08/30 03:03:06;;;;;;;2.28;0.32;;;;;;;-142.37;100.00;59669.53;4955354;28;20035;-65
2022/08/30 03:05:32;;;;;;;1.05;0.30;;;;;;;-142.37;100.00;59669.53;4972977;28;20038;-65
2022/08/30 03:07:59;;;;;;;1.90;0.17;;;;;;;-142.37;100.00;59669.53;4972882;28;20031;-65
2022/08/30 03:10:26;;;;;;;2.38;0.45;;;;;;;-142.37;100.00;59669.53;4972717;28;20042;-67
2022/08/30 03:12:53;;;;;;;1.33;0.20;;;;;;;-142.37;100.00;59669.53;4972646;28;20041;-66
2022/08/30 03:15:20;;;;;;;5.93;0.63;;;;;;;-142.37;100.00;59669.53;4972492;28;20078;-65
2022/08/30 03:17:46;;;;;;;2.15;0.50;;;;;;;-142.37;100.00;59669.53;4972739;28;20038;-66
2022/08/30 03:20:12;;;;;;;0.88;0.20;;;;;;;-142.37;100.00;59669.53;4955190;28;20039;-66
2022/08/30 03:22:38;;;;;;;0.68;0.20;;;;;;;-142.37;100.00;59669.53;4972472;28;20488;-66
2022/08/30 03:25:05;;;;;;;2.78;0.85;;;;;;;-142.37;100.00;59669.53;4972127;28;20057;-67
2022/08/30 03:27:31;;;;;;;0.63;0.20;;;;;;;-142.37;100.00;59669.53;4972321;28;20506;-66
2022/08/30 03:29:56;;;;;;;4.03;0.40;;;;;;;-142.37;100.00;59669.53;4972604;28;20118;-66
2022/08/30 03:32:22;;;;;;;1.25;0.32;;;;;;;-142.37;100.00;59669.53;4955208;28;20114;-66
2022/08/30 03:34:49;;;;;;;1.45;0.30;;;;;;;-142.37;100.00;59669.53;4957749;28;20061;-66
2022/08/30 03:37:15;;;;;;;1.88;0.28;;;;;;;-142.37;100.00;59669.53;4958180;28;20031;-66
2022/08/30 03:39:41;;;;;;;0.22;0.20;;;;;;;-142.37;100.00;59669.53;4975806;28;20062;-65
2022/08/30 03:42:07;;;;;;;0.98;0.30;;;;;;;-142.37;100.00;59669.53;4958756;28;20039;-67
2022/08/30 03:44:33;;;;;;;1.17;0.40;;;;;;;-142.37;100.00;59669.53;4958681;28;20399;-66
2022/08/30 03:46:58;;;;;;;1.40;0.50;;;;;;;-142.37;100.00;59669.53;4975722;28;20086;-65
2022/08/30 03:49:24;;;;;;;1.58;0.30;;;;;;;-142.37;100.00;59669.53;4975677;28;20036;-66
2022/08/30 03:51:50;;;;;;;1.38;0.35;;;;;;;-142.37;100.00;59669.53;4958422;28;20130;-66
2022/08/30 03:54:16;;;;;;;3.47;1.38;;;;;;;-142.37;100.00;59669.53;4975355;28;20440;-67
2022/08/30 03:56:42;;;;;;;2.00;0.40;;;;;;;-142.37;100.00;59669.53;4958406;28;20046;-68
2022/08/30 03:59:08;;;;;;;1.20;0.47;;;;;;;-142.37;100.00;59669.53;4975766;28;20042;-66
2022/08/30 04:01:34;;;;;;;7.07;1.17;;;;;;;-142.37;100.00;59669.53;4976051;28;20058;-66
2022/08/30 04:03:59;;;;;;;2.15;0.60;;;;;;;-142.37;100.00;59669.53;4957862;28;20060;-66
2022/08/30 04:06:26;;;;;;;1.40;0.60;;;;;;;-142.37;100.00;59669.53;4957941;28;20034;-66
2022/08/30 04:08:52;;;;;;;1.52;0.30;;;;;;;-142.37;100.00;59669.53;4975241;28;20034;-67
2022/08/30 04:11:19;;;;;;;2.53;1.13;;;;;;;-142.37;100.00;59669.53;4958040;28;20038;-66
2022/08/30 04:13:48;;;;;;;5.55;0.65;;;;;;;-142.37;100.00;59669.53;4975265;28;20468;-67
2022/08/30 04:16:14;;;;;;;1.15;0.50;;;;;;;-142.37;100.00;59669.53;4975229;28;20023;-67
2022/08/30 04:18:39;;;;;;;1.23;0.30;;;;;;;-142.37;100.00;59669.53;4974951;28;20034;-67
2022/08/30 04:21:05;;;;;;;3.20;0.40;;;;;;;-142.37;100.00;59669.53;4957474;28;20056;-67
2022/08/30 04:23:31;;;;;;;1.08;0.40;;;;;;;-142.37;100.00;59669.53;4975106;28;20369;-68
2022/08/30 04:25:57;;;;;;;3.83;0.47;;;;;;;-142.37;100.00;59669.53;4957724;28;20038;-68
2022/08/30 04:28:23;;;;;;;3.22;0.57;;;;;;;-142.37;100.00;59669.53;4957462;28;20050;-67
2022/08/30 04:30:50;;;;;;;5.05;1.50;;;;;;;-142.37;100.00;59669.53;4973590;28;20062;-67
2022/08/30 04:33:16;;;;;;;0.68;0.30;;;;;;;-142.37;100.00;59669.53;4974764;28;20050;-68
2022/08/30 04:35:47;;;;;;;1.83;0.50;;;;;;;-142.37;100.00;59669.53;4957404;28;20030;-67
2022/08/30 04:38:15;;;;;;;4.00;0.40;;;;;;;-142.37;100.00;59669.53;4957330;28;20037;-67
2022/08/30 04:40:42;;;;;;;5.72;0.47;;;;;;;-142.37;100.00;59669.53;4974597;28;20034;-66
2022/08/30 04:43:08;;;;;;;2.88;0.45;;;;;;;-142.37;100.00;59669.53;4957136;28;20035;-67
2022/08/30 04:45:36;;;;;;;3.55;0.77;;;;;;;-142.37;100.00;59669.53;4956673;28;20028;-68
2022/08/30 04:48:02;;;;;;;0.70;0.30;;;;;;;-142.37;100.00;59669.53;4974851;28;20046;-68
2022/08/30 04:50:28;;;;;;;1.70;0.30;;;;;;;-142.37;100.00;59669.53;4957234;28;20034;-65
2022/08/30 04:52:53;;;;;;;1.55;0.47;;;;;;;-142.37;100.00;59669.53;4957295;28;20465;-67
2022/08/30 04:55:19;;;;;;;2.55;0.70;;;;;;;-142.37;100.00;59669.53;4974609;28;20109;-68
2022/08/30 04:57:45;;;;;;;1.50;0.60;;;;;;;-142.37;100.00;59669.53;4973747;28;20057;-68
2022/08/30 05:00:12;;;;;;;2.70;0.60;;;;;;;-142.37;100.00;59669.53;4956514;28;20070;-66
2022/08/30 05:02:40;;;;;;;4.25;0.50;;;;;;;-142.37;100.00;59669.53;4956600;28;20427;-67
2022/08/30 05:07:52;;;;;;;2.35;0.63;;;;;;;-142.37;100.00;59669.53;4974443;28;20089;-66
2022/08/30 05:10:17;;;;;;;4.65;0.50;;;;;;;-142.37;100.00;59669.53;4956774;28;20062;-66
2022/08/30 05:12:43;;;;;;;2.55;0.40;;;;;;;-142.37;100.00;59669.53;4974053;28;20403;-67
2022/08/30 05:15:10;;;;;;;1.45;0.35;;;;;;;-142.37;100.00;59669.53;4973561;28;20052;-68
2022/08/30 05:17:37;;;;;;;0.90;0.70;;;;;;;-142.37;100.00;59669.53;4973535;28;20038;-69
2022/08/30 05:20:04;;;;;;;3.00;0.40;;;;;;;-142.37;100.00;59669.53;4973369;28;20031;-66
2022/08/30 05:22:30;;;;;;;2.92;0.35;;;;;;;-142.37;100.00;59669.53;4973407;28;20041;-66
2022/08/30 05:24:55;;;;;;;2.80;0.32;;;;;;;-142.37;100.00;59669.53;4955614;28;20030;-68
2022/08/30 05:27:21;;;;;;;1.23;0.30;;;;;;;-142.37;100.00;59669.53;4955529;28;20079;-68
2022/08/30 05:29:47;;;;;;;4.07;0.88;;;;;;;-142.37;100.00;59669.53;4973108;28;20089;-66
2022/08/30 05:32:12;;;;;;;5.75;0.52;;;;;;;-142.37;100.00;59669.53;4973243;28;20109;-68
2022/08/30 05:34:38;;;;;;;1.20;0.40;;;;;;;-142.37;100.00;59669.53;4973562;28;20043;-69
2022/08/30 05:37:04;;;;;;;2.72;0.88;;;;;;;-142.37;100.00;59669.53;4972399;28;20019;-68
2022/08/30 05:39:29;;;;;;;2.45;1.05;;;;;;;-142.37;100.00;59669.53;4955452;28;20034;-68
2022/08/30 05:41:58;;;;;;;2.25;0.63;;;;;;;-142.37;100.00;59669.53;4955360;28;20033;-67
2022/08/30 05:44:25;;;;;;;3.13;0.60;;;;;;;-142.37;100.00;59669.53;4972911;28;20086;-69
2022/08/30 05:46:51;;;;;;;3.83;0.60;;;;;;;-142.37;100.00;59669.53;4954753;28;20027;-70
2022/08/30 05:49:16;;;;;;;1.77;0.57;;;;;;;-142.37;100.00;59669.53;4954943;28;20391;-68
2022/08/30 05:51:43;;;;;;;2.42;0.57;;;;;;;-142.37;100.00;59669.53;4972183;28;20047;-68
2022/08/30 05:54:10;;;;;;;5.72;0.50;;;;;;;-142.37;100.00;59669.53;4972246;28;20555;-68
2022/08/30 05:56:38;;;;;;;2.05;0.60;;;;;;;-142.37;100.00;59669.53;4954342;28;20138;-68
2022/08/30 05:59:06;;;;;;;3.58;0.55;;;;;;;-142.37;100.00;59669.53;4954101;28;20061;-69
2022/08/30 06:01:35;;;;;;;1.55;0.65;;;;;;;-142.37;100.00;59669.53;4972448;28;20471;-67
2022/08/30 06:04:04;;;;;;;1.88;0.60;;;;;;;-142.37;100.00;59669.53;4954103;28;20110;-68
2022/08/30 06:06:32;;;;;;;2.88;1.17;;;;;;;-142.37;100.00;59669.53;4953744;28;20071;-70
2022/08/30 06:08:57;;;;;;;1.85;0.93;;;;;;;-142.37;100.00;59669.53;4971379;28;20120;-70
2022/08/30 06:11:25;;;;;;;0.60;0.25;;;;;;;-142.37;100.00;59669.53;4971778;28;20165;-69
2022/08/30 06:13:53;;;;;;;5.57;0.60;;;;;;;-142.37;100.00;59669.53;4971323;28;20035;-67
2022/08/30 06:16:20;;;;;;;6.30;0.80;;;;;;;-142.37;100.00;59669.53;4970308;28;20042;-69
2022/08/30 06:18:47;;;;;;;1.40;0.32;;;;;;;-142.37;100.00;59669.53;4953744;28;20073;-69
2022/08/30 06:21:17;;;;;;;5.57;0.40;;;;;;;-142.37;100.00;59669.53;4954006;28;20042;-68
2022/08/30 06:23:44;;;;;;;5.75;0.85;;;;;;;-142.37;100.00;59669.53;4953819;28;20071;-68
2022/08/30 06:26:10;;;;;;;1.15;0.20;;;;;;;-142.37;100.00;59669.53;4971072;28;20562;-67
2022/08/30 06:28:35;;;;;;;2.10;0.70;;;;;;;-142.37;100.00;59669.53;4954275;28;20054;-70
2022/08/30 06:31:08;;;;;;;2.67;0.63;;;;;;;-142.37;100.00;59669.53;4971474;28;20534;-69
2022/08/30 06:33:35;;;;;;;2.33;0.60;;;;;;;-142.37;100.00;59669.53;4954217;28;20038;-67
2022/08/30 06:36:06;;;;;;;3.55;0.40;;;;;;;-142.37;100.00;59669.53;4971857;28;20030;-68
2022/08/30 06:38:32;;;;;;;3.55;0.60;;;;;;;-142.37;100.00;59669.53;4971457;28;20571;-68
2022/08/30 06:40:58;;;;;;;1.02;0.32;;;;;;;-142.37;100.00;59669.53;4954381;28;20042;-68
2022/08/30 06:43:23;;;;;;;3.58;0.52;;;;;;;-142.37;100.00;59669.53;4954166;28;20067;-69
2022/08/30 06:45:49;;;;;;;1.40;0.50;;;;;;;-142.37;100.00;59669.53;4971241;28;20105;-68
2022/08/30 06:48:15;;;;;;;0.75;0.30;;;;;;;-142.37;100.00;59669.53;4952933;28;20035;-70
2022/08/30 06:50:42;;;;;;;0.82;0.40;;;;;;;-142.37;100.00;59669.53;4953856;28;20035;-68
2022/08/30 06:53:08;;;;;;;1.60;0.30;;;;;;;-142.37;100.00;59669.53;4953590;28;20046;-71
2022/08/30 06:55:34;;;;;;;2.05;0.65;;;;;;;-142.37;100.00;59669.53;4954056;28;20055;-69
2022/08/30 06:58:01;;;;;;;2.63;0.70;;;;;;;-142.37;100.00;59669.53;4970986;28;20058;-69
2022/08/30 07:00:27;;;;;;;1.67;0.80;;;;;;;-142.37;100.00;59669.53;4971764;28;20514;-68
2022/08/30 07:02:54;;;;;;;3.42;0.45;;;;;;;-142.37;100.00;59669.53;4971710;28;20403;-68
2022/08/30 07:05:22;;;;;;;1.67;0.43;;;;;;;-142.37;100.00;59669.53;4971627;28;20492;-67
2022/08/30 07:07:52;;;;;;;1.42;0.30;;;;;;;-142.37;100.00;59669.53;4954805;28;20027;-68
2022/08/30 07:10:18;;;;;;;2.92;0.60;;;;;;;-142.37;100.00;59669.53;4975750;28;20157;-68
2022/08/30 07:12:44;;;;;;;1.83;0.38;;;;;;;-142.37;100.00;59669.53;4976067;28;20035;-69
2022/08/30 07:15:10;;;;;;;5.05;0.95;;;;;;;-142.37;100.00;59669.53;4958367;28;20126;-69
2022/08/30 07:20:20;;;;;;;1.55;0.40;;;;;;;-142.37;100.00;59669.53;4975711;28;20419;-69
2022/08/30 07:22:47;;;;;;;2.38;0.73;;;;;;;-142.37;100.00;59669.53;4975914;28;20063;-66
2022/08/30 07:25:14;;;;;;;1.67;0.50;;;;;;;-142.37;100.00;59669.53;4975313;28;20034;-67
2022/08/30 07:27:40;;;;;;;5.47;0.57;;;;;;;-142.37;100.00;59669.53;4975426;28;20047;-68
2022/08/30 07:30:07;;;;;;;1.67;0.68;;;;;;;-142.37;100.00;59669.53;4957737;28;20038;-68
2022/08/30 07:32:33;;;;;;;1.42;0.47;;;;;;;-142.37;100.00;59669.53;4975511;28;20035;-69
2022/08/30 07:34:59;;;;;;;2.25;1.60;;;;;;;-142.37;100.00;59669.53;4957748;28;20034;-72
2022/08/30 07:37:25;;;;;;;2.85;0.43;;;;;;;-142.37;100.00;59669.53;4975649;28;20042;-68
2022/08/30 07:39:50;;;;;;;0.28;0.25;;;;;;;-142.37;100.00;59669.53;4975439;28;20031;-68
2022/08/30 07:42:16;;;;;;;1.48;0.45;;;;;;;-142.37;100.00;59669.53;4975542;28;20059;-69
2022/08/30 07:44:42;;;;;;;0.52;0.40;;;;;;;-142.37;100.00;59669.53;4958526;28;20046;-70
2022/08/30 07:47:09;;;;;;;2.83;0.60;;;;;;;-142.37;100.00;59669.53;4974850;28;20030;-67
2022/08/30 07:49:36;;;;;;;3.58;0.63;;;;;;;-142.37;100.00;59669.53;4975178;28;20023;-69
2022/08/30 07:52:02;;;;;;;1.30;0.30;;;;;;;-142.37;100.00;59669.53;4975699;28;20105;-68
2022/08/30 07:54:27;;;;;;;2.63;0.40;;;;;;;-142.37;100.00;59669.53;4958004;28;20114;-68
2022/08/30 07:56:54;;;;;;;0.35;0.35;;;;;;;-142.37;100.00;59669.53;4958052;28;20038;-68
2022/08/30 07:59:21;;;;;;;1.33;0.60;;;;;;;-142.37;100.00;59669.53;4974573;28;20035;-67
2022/08/30 08:01:47;;;;;;;0.63;0.40;;;;;;;-142.37;100.00;59669.53;4975088;28;20093;-67
2022/08/30 08:04:12;;;;;;;0.88;0.35;;;;;;;-142.37;100.00;59669.53;4974583;28;20062;-68
2022/08/30 08:06:39;;;;;;;0.68;0.30;;;;;;;-142.37;100.00;59669.53;4974697;28;20057;-68
2022/08/30 08:09:06;;;;;;;0.77;0.32;;;;;;;-142.37;100.00;59669.53;4957518;28;20495;-69
2022/08/30 08:11:33;;;;;;;0.82;0.47;;;;;;;-142.37;100.00;59669.53;4957249;28;20039;-67
2022/08/30 08:14:00;;;;;;;1.27;0.50;;;;;;;-142.37;100.00;59669.53;4956625;28;20034;-66
2022/08/30 08:16:28;;;;;;;2.70;0.40;;;;;;;-142.37;100.00;59669.53;4974520;28;20053;-66
2022/08/30 08:18:55;;;;;;;4.50;1.85;;;;;;;-142.37;100.00;59669.53;4956659;28;20030;-68
2022/08/30 08:21:22;;;;;;;1.63;0.40;;;;;;;-142.37;100.00;59669.53;4974185;28;20031;-67
2022/08/30 08:23:48;;;;;;;2.22;0.70;;;;;;;-142.37;100.00;59669.53;4974488;28;20126;-68
2022/08/30 08:26:14;;;;;;;2.28;0.73;;;;;;;-142.37;100.00;59669.53;4974497;28;20114;-66
2022/08/30 08:28:40;;;;;;;1.67;0.63;;;;;;;-142.37;100.00;59669.53;4974319;28;20066;-67
2022/08/30 08:31:17;;;;;;;1.02;0.30;;;;;;;-142.37;100.00;59669.53;4956676;28;20027;-67
2022/08/30 08:33:44;;;;;;;1.35;0.55;;;;;;;-142.37;100.00;59669.53;4974478;28;20055;-67
2022/08/30 08:36:09;;;;;;;0.65;0.25;;;;;;;-142.37;100.00;59669.53;4973281;28;20055;-67
2022/08/30 08:38:35;;;;;;;1.70;0.52;;;;;;;-142.37;100.00;59669.53;4974554;28;20508;-67
2022/08/30 08:41:19;;;;;;;2.03;0.52;;;;;;;-142.37;100.00;59669.53;4956526;28;20094;-68
2022/08/30 08:43:45;;;;;;;0.98;0.43;;;;;;;-142.37;100.00;59669.53;4972560;28;20031;-68
2022/08/30 08:46:29;;;;;;;2.20;0.70;;;;;;;-142.37;100.00;59669.53;4974137;28;20052;-66
2022/08/30 08:49:00;;;;;;;1.30;0.30;;;;;;;-142.37;100.00;59669.53;4974247;28;20111;-67
2022/08/30 08:54:43;;;;;;;1.27;0.60;;;;;;;-142.37;100.00;59669.53;4974322;28;20498;-67
2022/08/30 08:57:10;;;;;;;1.80;0.40;;;;;;;-142.37;100.00;59669.53;4956175;28;20050;-67
2022/08/30 08:59:36;;;;;;;0.68;0.60;;;;;;;-142.37;100.00;59669.53;4973828;28;20042;-66
2022/08/30 09:02:28;;;;;;;0.52;0.20;;;;;;;-142.37;100.00;59669.53;4973586;28;20571;-67
2022/08/30 09:04:58;;;;;;;0.93;0.40;;;;;;;-142.37;100.00;59669.53;4973304;28;20081;-66
2022/08/30 09:07:28;;;;;;;4.78;1.17;;;;;;;-142.37;100.00;59669.53;4956022;28;20027;-66
2022/08/30 09:09:57;;;;;;;1.98;0.77;;;;;;;-142.37;100.00;59669.53;4973663;28;20023;-65
2022/08/30 09:12:22;;;;;;;1.92;0.68;;;;;;;-142.37;100.00;59669.53;4955489;28;20287;-65
2022/08/30 09:14:55;;;;;;;0.88;0.38;;;;;;;-142.37;100.00;59669.53;4955721;28;20082;-65
2022/08/30 09:17:22;;;;;;;2.15;0.35;;;;;;;-142.37;100.00;59669.53;4972958;28;20034;-66
2022/08/30 09:19:50;;;;;;;1.35;0.32;;;;;;;-142.37;100.00;59669.53;4972492;28;20075;-66
2022/08/30 09:22:22;;;;;;;3.17;0.50;;;;;;;-142.37;100.00;59669.53;4972270;28;20069;-63
2022/08/30 09:25:17;;;;;;;1.55;0.57;;;;;;;-142.37;100.00;59669.53;4971737;28;20045;-66
2022/08/30 09:27:45;;;;;;;1.67;0.50;;;;;;;-142.37;100.00;59669.53;4955342;28;20047;-67
2022/08/30 09:30:18;;;;;;;1.00;0.40;;;;;;;-142.37;100.00;59669.53;4955925;28;20077;-66
2022/08/30 09:32:55;;;;;;;2.10;0.50;;;;;;;-142.37;100.00;59669.53;4972906;28;20114;-66
2022/08/30 09:35:25;;;;;;;2.33;0.45;;;;;;;-142.37;100.00;59669.53;4972335;28;20157;-65
2022/08/30 09:37:56;;;;;;;2.75;0.47;;;;;;;-142.37;100.00;59669.53;4972988;28;20106;-67
2022/08/30 09:40:32;;;;;;;0.63;0.30;;;;;;;-142.37;100.00;59669.53;4973275;28;20042;-66
2022/08/30 09:43:00;;;;;;;0.47;0.38;;;;;;;-142.37;100.00;59669.53;4972828;28;20038;-65
2022/08/30 09:45:31;;;;;;;1.67;0.65;;;;;;;-142.37;100.00;59669.53;4972664;28;20038;-64
2022/08/30 09:47:57;;;;;;;1.10;0.68;;;;;;;-142.37;100.00;59669.53;4955094;28;20073;-64
2022/08/30 09:50:24;;;;;;;2.83;0.57;;;;;;;-142.37;100.00;59669.53;4954831;28;20061;-65
2022/08/30 09:53:13;;;;;;;0.55;0.30;;;;;;;-142.37;100.00;59669.53;4971306;28;20030;-65
2022/08/30 09:55:54;;;;;;;1.27;0.32;;;;;;;-142.37;100.00;59669.53;4955784;28;20037;-67
2022/08/30 09:58:47;;;;;;;1.42;0.40;;;;;;;-142.37;100.00;59669.53;4955141;28;20145;-64
2022/08/30 10:01:28;;;;;;;0.95;0.40;;;;;;;-142.37;100.00;59669.53;4972440;28;20050;-66
2022/08/30 10:04:04;;;;;;;0.30;0.20;;;;;;;-142.37;100.00;59669.53;4973022;28;20034;-65
2022/08/30 10:06:37;;;;;;;0.57;0.40;;;;;;;-142.37;100.00;59669.53;4972532;28;20059;-65
2022/08/30 10:09:21;;;;;;;1.42;0.63;;;;;;;-142.37;100.00;59669.53;4972243;28;20386;-65
2022/08/30 10:12:03;;;;;;;1.20;1.00;;;;;;;-142.37;100.00;59669.53;4954908;28;20031;-65
2022/08/30 10:14:40;;;;;;;2.03;0.55;;;;;;;-142.37;100.00;59669.53;4972459;28;20488;-67
2022/08/30 10:17:18;;;;;;;0.75;0.45;;;;;;;-142.37;100.00;59669.53;4969849;28;20027;-65
2022/08/30 10:20:08;;;;;;;0.40;0.40;;;;;;;-142.37;100.00;59669.53;4954121;28;20447;-66
2022/08/30 10:22:39;;;;;;;1.13;0.82;;;;;;;-142.37;100.00;59669.53;4970969;28;20391;-64
2022/08/30 10:25:37;;;;;;;1.80;0.98;;;;;;;-142.37;100.00;59669.53;4954220;28;20136;-63
2022/08/30 10:28:15;;;;;;;2.33;0.52;;;;;;;-142.37;100.00;59669.53;4954320;28;20491;-66
2022/08/30 10:30:47;;;;;;;2.80;0.70;;;;;;;-142.37;100.00;59669.53;4971963;28;20096;-64
2022/08/30 10:33:24;;;;;;;1.02;0.60;;;;;;;-142.37;100.00;59669.53;4954235;28;20131;-65
2022/08/30 10:35:54;;;;;;;3.60;0.63;;;;;;;-142.37;100.00;59669.53;4953886;28;20483;-64
2022/08/30 10:38:31;;;;;;;6.55;0.77;;;;;;;-142.37;100.00;59669.53;4971840;28;20042;-65
2022/08/30 10:41:14;;;;;;;3.33;0.68;;;;;;;-142.37;100.00;59669.53;4954691;28;20471;-64
2022/08/30 10:44:14;;;;;;;2.45;0.70;;;;;;;-142.37;100.00;59669.53;4972863;28;20547;-65
2022/08/30 10:47:19;;;;;;;0.85;0.68;;;;;;;-142.37;100.00;59669.53;4945534;28;20035;-64
2022/08/30 10:49:48;;;;;;;1.88;0.90;;;;;;;-142.37;100.00;59669.53;4918749;29;20048;-64
2022/08/30 10:52:27;;;;;;;5.53;0.70;;;;;;;-142.37;100.00;59669.53;4934536;29;20190;-66
2022/08/30 10:54:59;;;;;;;4.18;0.98;;;;;;;-142.37;100.00;59669.53;4958559;28;20047;-64
2022/08/30 10:57:24;;;;;;;1.00;0.60;;;;;;;-142.37;100.00;59669.53;4958483;28;20380;-66
2022/08/30 10:59:56;;;;;;;2.35;0.60;;;;;;;-142.37;100.00;59669.53;4976317;28;20041;-66
2022/08/30 11:03:00;;;;;;;3.60;0.52;;;;;;;-142.37;100.00;59669.53;4976461;28;20062;-65
2022/08/30 11:06:05;;;;;;;2.47;0.50;;;;;;;-142.37;100.00;59669.53;4946824;28;20049;-65
2022/08/30 11:08:52;;;;;;;3.35;1.15;;;;;;;-142.37;100.00;59669.53;4958434;28;20376;-65
2022/08/30 11:11:36;;;;;;;2.58;0.43;;;;;;;-142.37;100.00;59669.53;4975439;28;20037;-63
2022/08/30 11:14:06;;;;;;;1.33;0.65;;;;;;;-142.37;100.00;59669.53;4974649;28;20034;-65
2022/08/30 11:16:36;;;;;;;4.40;0.68;;;;;;;-142.37;100.00;59669.53;4958419;28;20035;-63
2022/08/30 11:19:22;;;;;;;1.88;0.52;;;;;;;-142.37;100.00;59669.53;4975995;28;20475;-64
2022/08/30 11:21:50;;;;;;;1.23;0.40;;;;;;;-142.37;100.00;59669.53;4975878;28;20085;-66
2022/08/30 11:24:24;;;;;;;4.10;0.60;;;;;;;-142.37;100.00;59669.53;4974964;28;20031;-64
2022/08/30 11:26:53;;;;;;;2.10;0.30;;;;;;;-142.37;100.00;59669.53;4975734;28;20074;-65